sensor_id;sensor_type;location;lat;lon;timestamp;temperature;humidity
22781;DHT22;11557;50.884;4.322;2023-07-20T00:01:45;19.50;99.90
22781;DHT22;11557;50.884;4.322;2023-07-20T00:04:12;19.60;99.90
22781;DHT22;11557;50.884;4.322;2023-07-20T00:06:38;19.60;99.90
22781;DHT22;11557;50.884;4.322;2023-07-20T00:09:06;19.60;99.90
22781;DHT22;11557;50.884;4.322;2023-07-20T00:11:36;19.80;99.90
22781;DHT22;11557;50.884;4.322;2023-07-20T00:14:01;19.60;99.90
22781;DHT22;11557;50.884;4.322;2023-07-20T00:16:27;19.60;99.90
22781;DHT22;11557;50.884;4.322;2023-07-20T00:18:53;19.70;99.90
22781;DHT22;11557;50.884;4.322;2023-07-20T00:21:18;19.60;99.90
22781;DHT22;11557;50.884;4.322;2023-07-20T00:23:44;19.50;99.90
22781;DHT22;11557;50.884;4.322;2023-07-20T00:26:10;19.60;99.90
22781;DHT22;11557;50.884;4.322;2023-07-20T00:28:35;19.60;99.90
22781;DHT22;11557;50.884;4.322;2023-07-20T00:31:01;19.60;99.90
22781;DHT22;11557;50.884;4.322;2023-07-20T00:33:28;19.50;99.90
22781;DHT22;11557;50.884;4.322;2023-07-20T00:35:53;19.40;99.90
22781;DHT22;11557;50.884;4.322;2023-07-20T00:38:19;19.30;99.90
22781;DHT22;11557;50.884;4.322;2023-07-20T00:40:45;19.30;99.90
22781;DHT22;11557;50.884;4.322;2023-07-20T00:43:11;19.40;99.90
22781;DHT22;11557;50.884;4.322;2023-07-20T00:45:38;19.40;99.90
22781;DHT22;11557;50.884;4.322;2023-07-20T00:48:04;19.30;99.90
22781;DHT22;11557;50.884;4.322;2023-07-20T00:50:32;19.30;99.90
22781;DHT22;11557;50.884;4.322;2023-07-20T00:52:58;19.20;99.90
22781;DHT22;11557;50.884;4.322;2023-07-20T00:55:25;19.30;99.90
22781;DHT22;11557;50.884;4.322;2023-07-20T00:57:51;19.30;99.90
22781;DHT22;11557;50.884;4.322;2023-07-20T01:00:16;19.30;99.90
22781;DHT22;11557;50.884;4.322;2023-07-20T01:02:43;19.30;99.90
22781;DHT22;11557;50.884;4.322;2023-07-20T01:05:09;19.40;99.90
22781;DHT22;11557;50.884;4.322;2023-07-20T01:07:38;19.30;99.90
22781;DHT22;11557;50.884;4.322;2023-07-20T01:10:20;19.20;99.90
22781;DHT22;11557;50.884;4.322;2023-07-20T01:12:51;19.10;99.90
22781;DHT22;11557;50.884;4.322;2023-07-20T01:15:17;18.90;99.90
22781;DHT22;11557;50.884;4.322;2023-07-20T01:17:43;18.90;99.90
22781;DHT22;11557;50.884;4.322;2023-07-20T01:20:13;19.10;99.90
22781;DHT22;11557;50.884;4.322;2023-07-20T01:22:48;19.10;99.90
22781;DHT22;11557;50.884;4.322;2023-07-20T01:28:15;19.10;99.90
22781;DHT22;11557;50.884;4.322;2023-07-20T01:33:45;19.00;99.90
22781;DHT22;11557;50.884;4.322;2023-07-20T01:36:13;19.00;99.90
22781;DHT22;11557;50.884;4.322;2023-07-20T01:38:39;19.10;99.90
22781;DHT22;11557;50.884;4.322;2023-07-20T01:41:05;19.10;99.90
22781;DHT22;11557;50.884;4.322;2023-07-20T01:43:31;19.10;99.90
22781;DHT22;11557;50.884;4.322;2023-07-20T01:45:57;19.00;99.90
22781;DHT22;11557;50.884;4.322;2023-07-20T01:48:22;19.00;99.90
22781;DHT22;11557;50.884;4.322;2023-07-20T01:50:48;19.00;99.90
22781;DHT22;11557;50.884;4.322;2023-07-20T01:53:13;19.00;99.90
22781;DHT22;11557;50.884;4.322;2023-07-20T01:55:39;18.90;99.90
22781;DHT22;11557;50.884;4.322;2023-07-20T01:58:05;18.90;99.90
22781;DHT22;11557;50.884;4.322;2023-07-20T02:00:31;18.90;99.90
22781;DHT22;11557;50.884;4.322;2023-07-20T02:02:57;19.00;99.90
22781;DHT22;11557;50.884;4.322;2023-07-20T02:05:22;18.90;99.90
22781;DHT22;11557;50.884;4.322;2023-07-20T02:07:48;18.80;99.90
22781;DHT22;11557;50.884;4.322;2023-07-20T02:10:14;18.90;99.90
22781;DHT22;11557;50.884;4.322;2023-07-20T02:12:39;18.90;99.90
22781;DHT22;11557;50.884;4.322;2023-07-20T02:15:05;18.80;99.90
22781;DHT22;11557;50.884;4.322;2023-07-20T02:17:31;18.80;99.90
22781;DHT22;11557;50.884;4.322;2023-07-20T02:19:57;18.80;99.90
22781;DHT22;11557;50.884;4.322;2023-07-20T02:22:25;18.80;99.90
22781;DHT22;11557;50.884;4.322;2023-07-20T02:24:51;18.70;99.90
22781;DHT22;11557;50.884;4.322;2023-07-20T02:27:16;18.80;99.90
22781;DHT22;11557;50.884;4.322;2023-07-20T02:29:42;18.80;99.90
22781;DHT22;11557;50.884;4.322;2023-07-20T02:32:09;18.80;99.90
22781;DHT22;11557;50.884;4.322;2023-07-20T02:34:35;18.70;99.90
22781;DHT22;11557;50.884;4.322;2023-07-20T02:37:01;18.70;99.90
22781;DHT22;11557;50.884;4.322;2023-07-20T02:39:27;18.50;99.90
22781;DHT22;11557;50.884;4.322;2023-07-20T02:41:54;18.50;99.90
22781;DHT22;11557;50.884;4.322;2023-07-20T02:44:19;18.50;99.90
22781;DHT22;11557;50.884;4.322;2023-07-20T02:46:45;18.50;99.90
22781;DHT22;11557;50.884;4.322;2023-07-20T02:49:11;18.70;99.90
22781;DHT22;11557;50.884;4.322;2023-07-20T02:51:36;18.60;99.90
22781;DHT22;11557;50.884;4.322;2023-07-20T02:54:02;18.60;99.90
22781;DHT22;11557;50.884;4.322;2023-07-20T02:56:29;18.60;99.90
22781;DHT22;11557;50.884;4.322;2023-07-20T02:58:54;18.50;99.90
22781;DHT22;11557;50.884;4.322;2023-07-20T03:01:20;18.70;99.90
22781;DHT22;11557;50.884;4.322;2023-07-20T03:03:46;18.70;99.90
22781;DHT22;11557;50.884;4.322;2023-07-20T03:06:16;18.70;99.90
22781;DHT22;11557;50.884;4.322;2023-07-20T03:08:44;18.50;99.90
22781;DHT22;11557;50.884;4.322;2023-07-20T03:11:15;18.40;99.90
22781;DHT22;11557;50.884;4.322;2023-07-20T03:13:42;18.20;99.90
22781;DHT22;11557;50.884;4.322;2023-07-20T03:16:08;18.10;99.90
22781;DHT22;11557;50.884;4.322;2023-07-20T03:18:39;18.20;99.90
22781;DHT22;11557;50.884;4.322;2023-07-20T03:21:07;18.20;99.90
22781;DHT22;11557;50.884;4.322;2023-07-20T03:23:33;18.20;99.90
22781;DHT22;11557;50.884;4.322;2023-07-20T03:25:58;18.00;99.90
22781;DHT22;11557;50.884;4.322;2023-07-20T03:28:24;18.10;99.90
22781;DHT22;11557;50.884;4.322;2023-07-20T03:30:54;18.30;99.90
22781;DHT22;11557;50.884;4.322;2023-07-20T03:33:28;18.40;99.90
22781;DHT22;11557;50.884;4.322;2023-07-20T03:35:55;18.40;99.90
22781;DHT22;11557;50.884;4.322;2023-07-20T03:38:21;18.30;99.90
22781;DHT22;11557;50.884;4.322;2023-07-20T03:40:54;18.30;99.90
22781;DHT22;11557;50.884;4.322;2023-07-20T03:43:24;18.50;99.90
22781;DHT22;11557;50.884;4.322;2023-07-20T03:45:50;18.50;99.90
22781;DHT22;11557;50.884;4.322;2023-07-20T03:48:20;18.50;99.90
22781;DHT22;11557;50.884;4.322;2023-07-20T03:50:48;18.50;99.90
22781;DHT22;11557;50.884;4.322;2023-07-20T03:53:15;18.50;99.90
22781;DHT22;11557;50.884;4.322;2023-07-20T03:55:41;18.50;99.90
22781;DHT22;11557;50.884;4.322;2023-07-20T03:58:08;18.60;99.90
22781;DHT22;11557;50.884;4.322;2023-07-20T04:00:34;18.60;99.90
22781;DHT22;11557;50.884;4.322;2023-07-20T04:03:01;18.60;99.90
22781;DHT22;11557;50.884;4.322;2023-07-20T04:05:26;18.70;99.90
22781;DHT22;11557;50.884;4.322;2023-07-20T04:07:52;18.70;99.90
22781;DHT22;11557;50.884;4.322;2023-07-20T04:10:21;18.70;99.90
22781;DHT22;11557;50.884;4.322;2023-07-20T04:12:47;18.70;99.90
22781;DHT22;11557;50.884;4.322;2023-07-20T04:15:13;18.70;99.90
22781;DHT22;11557;50.884;4.322;2023-07-20T04:17:40;18.70;99.90
22781;DHT22;11557;50.884;4.322;2023-07-20T04:20:07;18.70;99.90
22781;DHT22;11557;50.884;4.322;2023-07-20T04:22:33;18.60;99.90
22781;DHT22;11557;50.884;4.322;2023-07-20T04:24:58;18.60;99.90
22781;DHT22;11557;50.884;4.322;2023-07-20T04:27:24;18.50;99.90
22781;DHT22;11557;50.884;4.322;2023-07-20T04:29:49;18.40;99.90
22781;DHT22;11557;50.884;4.322;2023-07-20T04:32:15;18.20;99.90
22781;DHT22;11557;50.884;4.322;2023-07-20T04:34:41;18.20;99.90
22781;DHT22;11557;50.884;4.322;2023-07-20T04:37:07;18.20;99.90
22781;DHT22;11557;50.884;4.322;2023-07-20T04:39:33;18.20;99.90
22781;DHT22;11557;50.884;4.322;2023-07-20T04:41:58;18.30;99.90
22781;DHT22;11557;50.884;4.322;2023-07-20T04:44:24;18.30;99.90
22781;DHT22;11557;50.884;4.322;2023-07-20T04:46:50;18.40;99.90
22781;DHT22;11557;50.884;4.322;2023-07-20T04:49:15;18.40;99.90
22781;DHT22;11557;50.884;4.322;2023-07-20T04:51:41;18.50;99.90
22781;DHT22;11557;50.884;4.322;2023-07-20T04:54:06;18.50;99.90
22781;DHT22;11557;50.884;4.322;2023-07-20T04:56:32;18.60;99.90
22781;DHT22;11557;50.884;4.322;2023-07-20T04:58:58;18.60;99.90
22781;DHT22;11557;50.884;4.322;2023-07-20T05:01:24;18.70;99.90
22781;DHT22;11557;50.884;4.322;2023-07-20T05:03:50;18.70;99.90
22781;DHT22;11557;50.884;4.322;2023-07-20T05:06:15;18.70;99.90
22781;DHT22;11557;50.884;4.322;2023-07-20T05:08:41;18.80;99.90
22781;DHT22;11557;50.884;4.322;2023-07-20T05:11:07;18.80;99.90
22781;DHT22;11557;50.884;4.322;2023-07-20T05:13:33;18.80;99.90
22781;DHT22;11557;50.884;4.322;2023-07-20T05:15:59;18.90;99.90
22781;DHT22;11557;50.884;4.322;2023-07-20T05:18:24;19.00;99.90
22781;DHT22;11557;50.884;4.322;2023-07-20T05:20:51;19.10;99.90
22781;DHT22;11557;50.884;4.322;2023-07-20T05:23:19;19.10;99.90
22781;DHT22;11557;50.884;4.322;2023-07-20T05:25:45;19.20;99.90
22781;DHT22;11557;50.884;4.322;2023-07-20T05:28:11;19.30;99.90
22781;DHT22;11557;50.884;4.322;2023-07-20T05:30:36;19.20;99.90
22781;DHT22;11557;50.884;4.322;2023-07-20T05:33:02;19.10;99.90
22781;DHT22;11557;50.884;4.322;2023-07-20T05:35:28;19.10;99.90
22781;DHT22;11557;50.884;4.322;2023-07-20T05:37:53;19.10;99.90
22781;DHT22;11557;50.884;4.322;2023-07-20T05:40:19;19.20;99.90
22781;DHT22;11557;50.884;4.322;2023-07-20T05:42:46;19.30;99.90
22781;DHT22;11557;50.884;4.322;2023-07-20T05:45:13;19.30;99.90
22781;DHT22;11557;50.884;4.322;2023-07-20T05:47:39;19.30;99.90
22781;DHT22;11557;50.884;4.322;2023-07-20T05:50:05;19.30;99.90
22781;DHT22;11557;50.884;4.322;2023-07-20T05:52:31;19.40;99.90
22781;DHT22;11557;50.884;4.322;2023-07-20T05:54:57;19.30;99.90
22781;DHT22;11557;50.884;4.322;2023-07-20T05:57:25;19.20;99.90
22781;DHT22;11557;50.884;4.322;2023-07-20T05:59:51;19.30;99.90
22781;DHT22;11557;50.884;4.322;2023-07-20T06:02:16;19.30;99.90
22781;DHT22;11557;50.884;4.322;2023-07-20T06:04:42;19.40;99.90
22781;DHT22;11557;50.884;4.322;2023-07-20T06:07:08;19.40;99.90
22781;DHT22;11557;50.884;4.322;2023-07-20T06:09:33;19.40;99.90
22781;DHT22;11557;50.884;4.322;2023-07-20T06:11:59;19.30;99.90
22781;DHT22;11557;50.884;4.322;2023-07-20T06:14:25;19.40;99.90
22781;DHT22;11557;50.884;4.322;2023-07-20T06:16:51;19.50;99.90
22781;DHT22;11557;50.884;4.322;2023-07-20T06:19:16;19.30;99.90
22781;DHT22;11557;50.884;4.322;2023-07-20T06:21:42;19.40;99.90
22781;DHT22;11557;50.884;4.322;2023-07-20T06:24:08;19.40;99.90
22781;DHT22;11557;50.884;4.322;2023-07-20T06:26:34;19.40;99.90
22781;DHT22;11557;50.884;4.322;2023-07-20T06:29:08;19.30;99.90
22781;DHT22;11557;50.884;4.322;2023-07-20T06:31:35;19.40;99.90
22781;DHT22;11557;50.884;4.322;2023-07-20T06:34:01;19.60;99.90
22781;DHT22;11557;50.884;4.322;2023-07-20T06:36:27;19.60;99.90
22781;DHT22;11557;50.884;4.322;2023-07-20T06:38:53;19.60;99.90
22781;DHT22;11557;50.884;4.322;2023-07-20T06:41:18;19.50;99.90
22781;DHT22;11557;50.884;4.322;2023-07-20T06:43:46;19.70;99.90
22781;DHT22;11557;50.884;4.322;2023-07-20T06:46:12;19.90;99.90
22781;DHT22;11557;50.884;4.322;2023-07-20T06:48:37;20.00;99.90
22781;DHT22;11557;50.884;4.322;2023-07-20T06:51:03;19.80;99.90
22781;DHT22;11557;50.884;4.322;2023-07-20T06:53:29;19.90;99.90
22781;DHT22;11557;50.884;4.322;2023-07-20T06:55:55;19.70;99.90
22781;DHT22;11557;50.884;4.322;2023-07-20T06:58:24;19.90;99.90
22781;DHT22;11557;50.884;4.322;2023-07-20T07:00:50;20.00;99.90
22781;DHT22;11557;50.884;4.322;2023-07-20T07:03:16;20.20;99.90
22781;DHT22;11557;50.884;4.322;2023-07-20T07:05:41;20.30;99.90
22781;DHT22;11557;50.884;4.322;2023-07-20T07:08:07;20.30;99.90
22781;DHT22;11557;50.884;4.322;2023-07-20T07:10:35;20.40;99.90
22781;DHT22;11557;50.884;4.322;2023-07-20T07:13:02;21.10;99.90
22781;DHT22;11557;50.884;4.322;2023-07-20T07:15:27;21.40;99.90
22781;DHT22;11557;50.884;4.322;2023-07-20T07:17:53;21.60;99.90
22781;DHT22;11557;50.884;4.322;2023-07-20T07:20:19;21.70;99.90
22781;DHT22;11557;50.884;4.322;2023-07-20T07:22:45;21.70;99.90
22781;DHT22;11557;50.884;4.322;2023-07-20T07:25:11;21.80;99.90
22781;DHT22;11557;50.884;4.322;2023-07-20T07:27:38;21.80;99.90
22781;DHT22;11557;50.884;4.322;2023-07-20T07:30:04;21.90;99.90
22781;DHT22;11557;50.884;4.322;2023-07-20T07:32:30;22.50;99.90
22781;DHT22;11557;50.884;4.322;2023-07-20T07:34:56;23.00;99.90
22781;DHT22;11557;50.884;4.322;2023-07-20T07:37:24;23.40;99.90
22781;DHT22;11557;50.884;4.322;2023-07-20T07:39:49;23.70;99.90
22781;DHT22;11557;50.884;4.322;2023-07-20T07:42:15;23.60;99.90
22781;DHT22;11557;50.884;4.322;2023-07-20T07:44:41;23.40;99.90
22781;DHT22;11557;50.884;4.322;2023-07-20T07:47:07;24.00;99.90
22781;DHT22;11557;50.884;4.322;2023-07-20T07:49:32;26.50;99.90
22781;DHT22;11557;50.884;4.322;2023-07-20T07:51:58;29.50;99.90
22781;DHT22;11557;50.884;4.322;2023-07-20T07:54:24;30.80;99.90
22781;DHT22;11557;50.884;4.322;2023-07-20T07:56:50;29.50;99.90
22781;DHT22;11557;50.884;4.322;2023-07-20T07:59:16;30.00;99.90
22781;DHT22;11557;50.884;4.322;2023-07-20T08:01:42;30.30;99.90
22781;DHT22;11557;50.884;4.322;2023-07-20T08:04:08;30.10;99.90
22781;DHT22;11557;50.884;4.322;2023-07-20T08:06:33;30.40;99.90
22781;DHT22;11557;50.884;4.322;2023-07-20T08:08:59;30.40;99.90
22781;DHT22;11557;50.884;4.322;2023-07-20T08:11:25;30.50;99.90
22781;DHT22;11557;50.884;4.322;2023-07-20T08:13:51;30.20;99.90
22781;DHT22;11557;50.884;4.322;2023-07-20T08:16:16;30.00;99.90
22781;DHT22;11557;50.884;4.322;2023-07-20T08:18:43;29.90;99.90
22781;DHT22;11557;50.884;4.322;2023-07-20T08:21:09;30.90;99.90
22781;DHT22;11557;50.884;4.322;2023-07-20T08:23:34;32.70;99.90
22781;DHT22;11557;50.884;4.322;2023-07-20T08:26:00;33.60;99.90
22781;DHT22;11557;50.884;4.322;2023-07-20T08:28:26;32.00;99.90
22781;DHT22;11557;50.884;4.322;2023-07-20T08:30:52;31.50;99.90
22781;DHT22;11557;50.884;4.322;2023-07-20T08:33:18;30.90;99.90
22781;DHT22;11557;50.884;4.322;2023-07-20T08:35:48;29.70;99.90
22781;DHT22;11557;50.884;4.322;2023-07-20T08:38:14;28.90;99.90
22781;DHT22;11557;50.884;4.322;2023-07-20T08:40:42;30.40;99.90
22781;DHT22;11557;50.884;4.322;2023-07-20T08:43:10;31.70;99.90
22781;DHT22;11557;50.884;4.322;2023-07-20T08:45:36;33.20;99.90
22781;DHT22;11557;50.884;4.322;2023-07-20T08:48:05;34.70;99.90
22781;DHT22;11557;50.884;4.322;2023-07-20T08:50:32;35.60;99.90
22781;DHT22;11557;50.884;4.322;2023-07-20T08:52:58;36.10;99.90
22781;DHT22;11557;50.884;4.322;2023-07-20T08:55:28;35.80;99.90
22781;DHT22;11557;50.884;4.322;2023-07-20T08:57:55;36.40;99.90
22781;DHT22;11557;50.884;4.322;2023-07-20T09:00:21;36.80;99.90
22781;DHT22;11557;50.884;4.322;2023-07-20T09:02:49;36.90;99.90
22781;DHT22;11557;50.884;4.322;2023-07-20T09:05:16;36.50;99.90
22781;DHT22;11557;50.884;4.322;2023-07-20T09:07:42;36.50;99.90
22781;DHT22;11557;50.884;4.322;2023-07-20T09:10:08;36.50;99.20
22781;DHT22;11557;50.884;4.322;2023-07-20T09:12:41;36.10;97.80
22781;DHT22;11557;50.884;4.322;2023-07-20T09:15:08;35.70;98.90
22781;DHT22;11557;50.884;4.322;2023-07-20T09:17:34;35.30;98.50
22781;DHT22;11557;50.884;4.322;2023-07-20T09:20:05;34.60;98.50
22781;DHT22;11557;50.884;4.322;2023-07-20T09:22:37;34.80;99.40
22781;DHT22;11557;50.884;4.322;2023-07-20T09:25:08;33.90;99.70
22781;DHT22;11557;50.884;4.322;2023-07-20T09:27:40;33.70;97.90
22781;DHT22;11557;50.884;4.322;2023-07-20T09:30:07;33.30;99.90
22781;DHT22;11557;50.884;4.322;2023-07-20T09:32:47;32.30;99.60
22781;DHT22;11557;50.884;4.322;2023-07-20T09:35:31;30.80;99.90
22781;DHT22;11557;50.884;4.322;2023-07-20T09:38:00;30.20;99.90
22781;DHT22;11557;50.884;4.322;2023-07-20T09:40:26;29.10;99.90
22781;DHT22;11557;50.884;4.322;2023-07-20T09:42:53;28.70;99.90
22781;DHT22;11557;50.884;4.322;2023-07-20T09:45:40;28.60;99.90
22781;DHT22;11557;50.884;4.322;2023-07-20T09:48:07;28.40;99.90
22781;DHT22;11557;50.884;4.322;2023-07-20T09:50:34;28.10;99.90
22781;DHT22;11557;50.884;4.322;2023-07-20T09:53:01;28.60;99.90
22781;DHT22;11557;50.884;4.322;2023-07-20T09:55:29;28.80;99.90
22781;DHT22;11557;50.884;4.322;2023-07-20T09:57:56;29.50;99.90
22781;DHT22;11557;50.884;4.322;2023-07-20T10:00:22;29.40;99.90
22781;DHT22;11557;50.884;4.322;2023-07-20T10:02:51;29.80;99.90
22781;DHT22;11557;50.884;4.322;2023-07-20T10:05:17;30.40;99.90
22781;DHT22;11557;50.884;4.322;2023-07-20T10:07:47;30.20;99.90
22781;DHT22;11557;50.884;4.322;2023-07-20T10:10:15;30.30;99.90
22781;DHT22;11557;50.884;4.322;2023-07-20T10:12:43;30.40;99.90
22781;DHT22;11557;50.884;4.322;2023-07-20T10:15:33;30.50;99.90
22781;DHT22;11557;50.884;4.322;2023-07-20T10:18:09;30.20;99.90
22781;DHT22;11557;50.884;4.322;2023-07-20T10:20:39;30.00;99.90
22781;DHT22;11557;50.884;4.322;2023-07-20T10:23:06;29.40;99.90
22781;DHT22;11557;50.884;4.322;2023-07-20T10:25:33;29.10;99.90
22781;DHT22;11557;50.884;4.322;2023-07-20T10:28:04;29.00;99.90
22781;DHT22;11557;50.884;4.322;2023-07-20T10:30:31;29.00;99.90
22781;DHT22;11557;50.884;4.322;2023-07-20T10:32:57;28.90;99.90
22781;DHT22;11557;50.884;4.322;2023-07-20T10:35:22;28.80;99.90
22781;DHT22;11557;50.884;4.322;2023-07-20T10:37:50;28.60;99.90
22781;DHT22;11557;50.884;4.322;2023-07-20T10:43:07;28.60;99.90
22781;DHT22;11557;50.884;4.322;2023-07-20T10:45:48;28.70;99.90
22781;DHT22;11557;50.884;4.322;2023-07-20T10:48:18;29.00;99.90
22781;DHT22;11557;50.884;4.322;2023-07-20T10:50:45;29.00;99.90
22781;DHT22;11557;50.884;4.322;2023-07-20T10:53:19;29.10;99.90
22781;DHT22;11557;50.884;4.322;2023-07-20T10:55:44;28.80;99.90
22781;DHT22;11557;50.884;4.322;2023-07-20T10:58:14;28.30;99.90
22781;DHT22;11557;50.884;4.322;2023-07-20T11:01:02;28.00;99.90
22781;DHT22;11557;50.884;4.322;2023-07-20T11:03:36;27.60;99.90
22781;DHT22;11557;50.884;4.322;2023-07-20T11:09:05;28.00;99.90
22781;DHT22;11557;50.884;4.322;2023-07-20T11:11:34;28.30;99.90
22781;DHT22;11557;50.884;4.322;2023-07-20T11:14:09;28.20;99.90
22781;DHT22;11557;50.884;4.322;2023-07-20T11:19:03;26.90;99.90
22781;DHT22;11557;50.884;4.322;2023-07-20T11:21:30;26.30;99.90
22781;DHT22;11557;50.884;4.322;2023-07-20T11:24:03;26.10;99.90
22781;DHT22;11557;50.884;4.322;2023-07-20T11:26:28;25.50;99.90
22781;DHT22;11557;50.884;4.322;2023-07-20T11:28:54;25.50;99.90
22781;DHT22;11557;50.884;4.322;2023-07-20T11:31:20;25.50;99.90
22781;DHT22;11557;50.884;4.322;2023-07-20T11:33:46;25.20;99.90
22781;DHT22;11557;50.884;4.322;2023-07-20T11:36:13;25.30;99.90
22781;DHT22;11557;50.884;4.322;2023-07-20T11:38:42;25.50;99.90
22781;DHT22;11557;50.884;4.322;2023-07-20T11:41:09;25.60;99.90
22781;DHT22;11557;50.884;4.322;2023-07-20T11:43:35;25.30;99.90
22781;DHT22;11557;50.884;4.322;2023-07-20T11:46:04;25.20;99.90
22781;DHT22;11557;50.884;4.322;2023-07-20T11:48:30;25.20;99.90
22781;DHT22;11557;50.884;4.322;2023-07-20T11:50:56;25.30;99.90
22781;DHT22;11557;50.884;4.322;2023-07-20T11:53:22;25.20;99.90
22781;DHT22;11557;50.884;4.322;2023-07-20T11:55:50;24.70;99.90
22781;DHT22;11557;50.884;4.322;2023-07-20T11:58:15;24.90;99.90
22781;DHT22;11557;50.884;4.322;2023-07-20T12:00:44;25.10;99.90
22781;DHT22;11557;50.884;4.322;2023-07-20T12:03:09;24.30;99.90
22781;DHT22;11557;50.884;4.322;2023-07-20T12:05:37;23.90;99.90
22781;DHT22;11557;50.884;4.322;2023-07-20T12:08:03;23.80;99.90
22781;DHT22;11557;50.884;4.322;2023-07-20T12:10:29;24.20;99.90
22781;DHT22;11557;50.884;4.322;2023-07-20T12:13:01;24.50;99.90
22781;DHT22;11557;50.884;4.322;2023-07-20T12:15:28;24.90;99.90
22781;DHT22;11557;50.884;4.322;2023-07-20T12:17:59;25.30;99.90
22781;DHT22;11557;50.884;4.322;2023-07-20T12:20:32;24.90;99.90
22781;DHT22;11557;50.884;4.322;2023-07-20T12:23:02;24.90;99.90
22781;DHT22;11557;50.884;4.322;2023-07-20T12:25:45;24.80;99.90
22781;DHT22;11557;50.884;4.322;2023-07-20T12:28:17;24.70;99.90
22781;DHT22;11557;50.884;4.322;2023-07-20T12:30:44;24.80;99.90
22781;DHT22;11557;50.884;4.322;2023-07-20T12:33:10;24.90;99.90
22781;DHT22;11557;50.884;4.322;2023-07-20T12:35:37;24.70;99.90
22781;DHT22;11557;50.884;4.322;2023-07-20T12:38:03;24.90;99.90
22781;DHT22;11557;50.884;4.322;2023-07-20T12:40:28;24.70;99.90
22781;DHT22;11557;50.884;4.322;2023-07-20T12:42:55;24.90;99.90
22781;DHT22;11557;50.884;4.322;2023-07-20T12:45:21;25.00;99.90
22781;DHT22;11557;50.884;4.322;2023-07-20T12:47:47;25.10;99.90
22781;DHT22;11557;50.884;4.322;2023-07-20T12:50:13;25.00;99.90
22781;DHT22;11557;50.884;4.322;2023-07-20T12:52:39;24.70;99.90
22781;DHT22;11557;50.884;4.322;2023-07-20T12:55:09;24.20;99.90
22781;DHT22;11557;50.884;4.322;2023-07-20T12:57:35;24.10;99.90
22781;DHT22;11557;50.884;4.322;2023-07-20T13:00:05;23.90;99.90
22781;DHT22;11557;50.884;4.322;2023-07-20T13:02:33;23.80;99.90
22781;DHT22;11557;50.884;4.322;2023-07-20T13:04:59;24.00;99.90
22781;DHT22;11557;50.884;4.322;2023-07-20T13:07:35;23.80;99.90
22781;DHT22;11557;50.884;4.322;2023-07-20T13:10:03;24.10;99.90
22781;DHT22;11557;50.884;4.322;2023-07-20T13:12:30;24.30;99.90
22781;DHT22;11557;50.884;4.322;2023-07-20T13:14:56;24.10;99.90
22781;DHT22;11557;50.884;4.322;2023-07-20T13:17:26;24.30;99.90
22781;DHT22;11557;50.884;4.322;2023-07-20T13:19:51;24.30;99.90
22781;DHT22;11557;50.884;4.322;2023-07-20T13:22:17;24.60;99.90
22781;DHT22;11557;50.884;4.322;2023-07-20T13:24:44;24.70;99.90
22781;DHT22;11557;50.884;4.322;2023-07-20T13:27:11;24.50;99.90
22781;DHT22;11557;50.884;4.322;2023-07-20T13:29:36;24.20;99.90
22781;DHT22;11557;50.884;4.322;2023-07-20T13:32:02;23.80;99.90
22781;DHT22;11557;50.884;4.322;2023-07-20T13:34:29;23.30;99.90
22781;DHT22;11557;50.884;4.322;2023-07-20T13:36:55;23.10;99.90
22781;DHT22;11557;50.884;4.322;2023-07-20T13:39:20;22.60;99.90
22781;DHT22;11557;50.884;4.322;2023-07-20T13:41:49;22.00;99.90
22781;DHT22;11557;50.884;4.322;2023-07-20T13:44:15;22.00;99.90
22781;DHT22;11557;50.884;4.322;2023-07-20T13:46:40;22.10;99.90
22781;DHT22;11557;50.884;4.322;2023-07-20T13:49:06;22.10;99.90
22781;DHT22;11557;50.884;4.322;2023-07-20T13:51:32;22.10;99.90
22781;DHT22;11557;50.884;4.322;2023-07-20T13:53:58;22.10;99.90
22781;DHT22;11557;50.884;4.322;2023-07-20T13:56:24;22.30;99.90
22781;DHT22;11557;50.884;4.322;2023-07-20T13:58:50;22.40;99.90
22781;DHT22;11557;50.884;4.322;2023-07-20T14:01:16;22.40;99.90
22781;DHT22;11557;50.884;4.322;2023-07-20T14:03:43;22.30;99.90
22781;DHT22;11557;50.884;4.322;2023-07-20T14:06:09;22.20;99.90
22781;DHT22;11557;50.884;4.322;2023-07-20T14:08:34;22.20;99.90
22781;DHT22;11557;50.884;4.322;2023-07-20T14:11:00;22.30;99.90
22781;DHT22;11557;50.884;4.322;2023-07-20T14:13:26;22.50;99.90
22781;DHT22;11557;50.884;4.322;2023-07-20T14:15:51;22.80;99.90
22781;DHT22;11557;50.884;4.322;2023-07-20T14:18:17;22.90;99.90
22781;DHT22;11557;50.884;4.322;2023-07-20T14:20:43;23.30;99.90
22781;DHT22;11557;50.884;4.322;2023-07-20T14:23:09;23.70;99.90
22781;DHT22;11557;50.884;4.322;2023-07-20T14:25:35;24.30;99.90
22781;DHT22;11557;50.884;4.322;2023-07-20T14:28:01;24.70;99.90
22781;DHT22;11557;50.884;4.322;2023-07-20T14:30:27;24.80;99.90
22781;DHT22;11557;50.884;4.322;2023-07-20T14:32:52;24.80;99.90
22781;DHT22;11557;50.884;4.322;2023-07-20T14:35:18;24.90;99.90
22781;DHT22;11557;50.884;4.322;2023-07-20T14:37:44;24.90;99.90
22781;DHT22;11557;50.884;4.322;2023-07-20T14:40:12;25.10;99.90
22781;DHT22;11557;50.884;4.322;2023-07-20T14:42:38;25.30;99.90
22781;DHT22;11557;50.884;4.322;2023-07-20T14:45:04;25.40;99.90
22781;DHT22;11557;50.884;4.322;2023-07-20T14:47:31;25.50;99.90
22781;DHT22;11557;50.884;4.322;2023-07-20T14:50:01;25.50;99.90
22781;DHT22;11557;50.884;4.322;2023-07-20T14:52:28;25.60;99.90
22781;DHT22;11557;50.884;4.322;2023-07-20T14:54:54;25.50;99.90
22781;DHT22;11557;50.884;4.322;2023-07-20T14:57:19;25.40;99.90
22781;DHT22;11557;50.884;4.322;2023-07-20T14:59:47;25.50;99.90
22781;DHT22;11557;50.884;4.322;2023-07-20T15:02:12;25.40;99.90
22781;DHT22;11557;50.884;4.322;2023-07-20T15:04:48;25.30;99.90
22781;DHT22;11557;50.884;4.322;2023-07-20T15:07:16;25.40;99.90
22781;DHT22;11557;50.884;4.322;2023-07-20T15:09:43;25.40;99.90
22781;DHT22;11557;50.884;4.322;2023-07-20T15:12:09;25.40;99.90
22781;DHT22;11557;50.884;4.322;2023-07-20T15:14:35;25.30;99.90
22781;DHT22;11557;50.884;4.322;2023-07-20T15:17:01;25.00;99.90
22781;DHT22;11557;50.884;4.322;2023-07-20T15:19:28;24.80;99.90
22781;DHT22;11557;50.884;4.322;2023-07-20T15:21:53;24.80;99.90
22781;DHT22;11557;50.884;4.322;2023-07-20T15:24:19;24.70;99.90
22781;DHT22;11557;50.884;4.322;2023-07-20T15:26:45;24.50;99.90
22781;DHT22;11557;50.884;4.322;2023-07-20T15:29:10;24.40;99.90
22781;DHT22;11557;50.884;4.322;2023-07-20T15:31:36;24.40;99.90
22781;DHT22;11557;50.884;4.322;2023-07-20T15:34:01;24.10;99.90
22781;DHT22;11557;50.884;4.322;2023-07-20T15:36:27;23.50;99.90
22781;DHT22;11557;50.884;4.322;2023-07-20T15:38:53;23.10;99.90
22781;DHT22;11557;50.884;4.322;2023-07-20T15:41:18;22.50;99.90
22781;DHT22;11557;50.884;4.322;2023-07-20T15:43:44;22.00;99.90